VTBU/UTP METAR and TAF weather

Enter ICAO airport designator
Station Type Date Time Source
VTBU METAR 2020/10/29 17:00 UTC NOAA

VTBU 291700Z 19009KT 7000 -RA FEW018CB SCT035 BKN100 26/24 Q1010 TEMPO FM1720 TL1750 4000 RA


Station Type Date Time Source
VTBU Decoded METAR 2020/10/29 17:00 UTC NOAA

Rayong, Thailand (VTBU) 12-38N 101-21E 5M
Oct 29, 2020 - 01:00 PM EDT / 2020.10.29 1700 UTC
Wind: from the S (190 degrees) at 10 MPH (9 KT):0
Visibility: 4 mile(s):0
Sky conditions: mostly cloudy
Weather: light rain; Cumulonimbus clouds observed
Temperature: 78 F (26 C)
Dew Point: 75 F (24 C)
Relative Humidity: 88%
Pressure (altimeter): 29.83 in. Hg (1010 hPa)
ob: VTBU 291700Z 19009KT 7000 -RA FEW018CB SCT035 BKN100 26/24 Q1010 TEMPO FM1720 TL1750 4000 RA
cycle: 17

Station Type Date Time Source
VTBU TAF 2020/10/29 12:36 UTC NOAA

TAF VTBU 291100Z 2912/3012 28006KT 7000 FEW020 SCT100
TEMPO 2915/2920 VRB10G20KT 4000 TSRA FEW018CB SCT035 BKN100

Example: see airport list